Terminal Aerodrome Forecast
Issued by NWS

Home | Current Version | Previous Version | Text Only | Print | Product List | Glossary On
Versions: 1 2 3 4 5 6 7 8 9 10 11 12 13
000
FTUS41 KBTV 201131
TAFRUT
TAF
KRUT 201131Z 2012/2112 29012G20KT P6SM BKN150
     FM201800 28010G19KT P6SM VCSH OVC045
     FM202100 27007KT P6SM BKN040
     FM210200 23007KT P6SM BKN035
     FM210600 21007KT P6SM SCT110=

USA.gov is the U.S. government's official web portal to all federal, state and local government web resources and services.